Time;durP1;ratioP1;P1;durP2;ratioP2;P2;SDS_P1;SDS_P2;PMS_P1;PMS_P2;Temp;Humidity;BMP_temperature;BMP_pressure;BME280_temperature;BME280_humidity;BME280_pressure;Samples;Min_cycle;Max_cycle;Signal;HPM_P1;HPM_P2
2022/01/25 00:08:51;;;;;;;11.77;10.43;;;17.00;98.00;;;;;;4186231;28;20220;-75
2022/01/25 00:25:21;;;;;;;11.73;10.57;;;17.00;97.90;;;;;;4180593;28;20603;-75
2022/01/25 00:27:41;;;;;;;12.07;10.88;;;17.00;97.90;;;;;;4180741;28;20211;-75
2022/01/25 00:32:00;;;;;;;12.93;11.05;;;16.90;97.90;;;;;;4179028;28;20215;-75
2022/01/25 00:34:03;;;;;;;13.25;11.25;;;16.90;97.80;;;;;;4181130;28;20215;-75
2022/01/25 00:36:09;;;;;;;12.05;10.85;;;16.90;97.90;;;;;;4189410;28;20242;-75
2022/01/25 00:38:11;;;;;;;13.90;12.23;;;16.90;97.80;;;;;;4197907;28;20625;-75
2022/01/25 00:40:13;;;;;;;11.95;10.75;;;16.90;97.80;;;;;;4197651;28;20273;-75
2022/01/25 00:42:16;;;;;;;13.00;11.70;;;16.90;97.80;;;;;;4198013;28;20725;-75
2022/01/25 00:44:20;;;;;;;12.65;11.30;;;16.90;97.80;;;;;;4197456;28;20277;-75
2022/01/25 00:46:23;;;;;;;13.27;11.80;;;16.90;97.80;;;;;;4197999;28;20276;-75
2022/01/25 00:48:31;;;;;;;13.43;11.48;;;16.90;97.80;;;;;;4197883;28;20226;-75
2022/01/25 00:50:39;;;;;;;12.98;11.38;;;16.90;97.80;;;;;;4198216;28;20265;-76
2022/01/25 00:55:07;;;;;;;13.25;11.85;;;16.90;97.80;;;;;;4197788;28;20195;-75
2022/01/25 00:57:09;;;;;;;12.27;11.05;;;16.80;97.80;;;;;;4197797;28;20265;-75
2022/01/25 00:59:14;;;;;;;12.30;11.00;;;16.80;97.70;;;;;;4197701;28;20211;-75
2022/01/25 01:01:18;;;;;;;13.23;11.68;;;16.80;97.70;;;;;;4197438;28;20219;-75
2022/01/25 01:03:21;;;;;;;13.48;12.07;;;16.80;97.80;;;;;;4195554;28;20241;-75
2022/01/25 01:05:24;;;;;;;12.40;11.13;;;16.80;97.80;;;;;;4196872;28;20226;-75
2022/01/25 01:07:26;;;;;;;12.45;11.05;;;16.80;97.70;;;;;;4197766;28;20215;-75
2022/01/25 01:09:32;;;;;;;13.25;11.90;;;16.80;97.70;;;;;;4197591;28;20761;-75
2022/01/25 01:11:39;;;;;;;12.30;11.00;;;16.80;97.70;;;;;;4197769;28;20257;-75
2022/01/25 01:13:57;;;;;;;12.70;11.15;;;16.80;97.70;;;;;;4197720;28;20223;-75
2022/01/25 01:16:17;;;;;;;13.65;12.35;;;16.80;97.70;;;;;;4197462;28;20219;-75
2022/01/25 01:30:10;;;;;;;13.18;11.88;;;16.70;97.60;;;;;;4197597;28;20615;-76
2022/01/25 01:32:32;;;;;;;13.82;12.43;;;16.70;97.60;;;;;;4196209;28;20245;-75
2022/01/25 01:44:20;;;;;;;13.57;12.02;;;16.70;97.50;;;;;;4147401;28;20264;-75
2022/01/25 01:46:32;;;;;;;13.55;11.63;;;16.70;97.50;;;;;;4175109;28;20269;-76
2022/01/25 01:48:39;;;;;;;13.20;11.90;;;16.70;97.50;;;;;;4197492;28;20218;-76
2022/01/25 01:50:43;;;;;;;13.93;12.45;;;16.60;97.40;;;;;;4196996;28;20647;-76
2022/01/25 01:52:45;;;;;;;14.75;13.25;;;16.60;97.40;;;;;;4196805;28;20211;-76
2022/01/25 01:54:47;;;;;;;14.10;12.63;;;16.60;97.40;;;;;;4196869;28;20207;-76
2022/01/25 01:56:50;;;;;;;13.48;12.18;;;16.60;97.40;;;;;;4196582;28;20226;-76
2022/01/25 01:58:55;;;;;;;14.15;12.65;;;16.60;97.40;;;;;;4196841;28;20230;-75
2022/01/25 02:00:58;;;;;;;13.45;12.15;;;16.60;97.40;;;;;;4192753;28;20262;-75
2022/01/25 02:03:01;;;;;;;14.07;12.60;;;16.60;97.40;;;;;;4197369;28;20927;-75
2022/01/25 02:05:04;;;;;;;14.38;12.88;;;16.60;97.70;;;;;;4195851;28;20223;-76
2022/01/25 02:07:08;;;;;;;14.52;12.65;;;16.50;97.30;;;;;;4196762;28;20259;-76
2022/01/25 02:09:10;;;;;;;14.77;13.27;;;16.60;97.40;;;;;;4192633;28;20652;-76
2022/01/25 02:11:13;;;;;;;14.30;12.80;;;16.60;97.30;;;;;;4196370;28;20219;-76
2022/01/25 02:13:15;;;;;;;13.88;12.50;;;16.50;97.20;;;;;;4195810;28;20219;-75
2022/01/25 02:15:19;;;;;;;14.07;12.60;;;16.50;97.20;;;;;;4196182;28;20261;-76
2022/01/25 02:17:41;;;;;;;14.13;12.68;;;16.50;97.20;;;;;;4196429;28;20316;-76
2022/01/25 02:22:26;;;;;;;15.07;12.13;;;16.50;97.20;;;;;;4192355;28;20207;-76
2022/01/25 02:24:30;;;;;;;14.75;13.25;;;16.50;97.50;;;;;;4196425;28;20703;-76
2022/01/25 02:26:33;;;;;;;14.43;12.93;;;16.50;97.20;;;;;;4196277;28;20620;-76
2022/01/25 02:28:38;;;;;;;14.35;12.82;;;16.50;97.20;;;;;;4195798;28;20222;-76
2022/01/25 02:30:41;;;;;;;14.90;13.38;;;16.50;97.20;;;;;;4195984;28;20285;-76
2022/01/25 02:32:43;;;;;;;14.27;12.88;;;16.50;97.20;;;;;;4196373;28;20269;-75
2022/01/25 02:34:47;;;;;;;14.50;13.10;;;16.50;97.20;;;;;;4196220;28;20329;-76
2022/01/25 02:36:56;;;;;;;14.85;13.35;;;16.50;97.40;;;;;;4195552;28;20309;-75
2022/01/25 02:39:00;;;;;;;15.23;13.55;;;16.40;97.10;;;;;;4185052;28;20273;-76
2022/01/25 02:41:03;;;;;;;14.93;13.30;;;16.50;97.20;;;;;;4187019;28;20241;-76
2022/01/25 02:43:05;;;;;;;14.88;13.27;;;16.40;97.10;;;;;;4193329;28;20215;-76
2022/01/25 02:45:15;;;;;;;14.20;12.68;;;16.40;97.20;;;;;;4179632;28;20212;-76
2022/01/25 02:49:37;;;;;;;15.70;14.07;;;16.40;97.40;;;;;;4179338;28;20208;-76
2022/01/25 02:51:43;;;;;;;14.80;13.27;;;16.40;97.10;;;;;;4179405;28;20219;-76
2022/01/25 02:53:46;;;;;;;15.20;13.65;;;16.40;97.10;;;;;;4177713;28;21005;-75
2022/01/25 02:55:48;;;;;;;15.70;13.88;;;16.40;97.10;;;;;;4178967;28;20711;-75
2022/01/25 02:57:51;;;;;;;14.13;12.80;;;16.40;97.10;;;;;;4179163;28;20216;-75
2022/01/25 02:59:53;;;;;;;14.57;13.13;;;16.40;97.10;;;;;;4179976;28;20273;-75
2022/01/25 03:01:56;;;;;;;15.05;13.50;;;16.40;97.10;;;;;;4179116;28;20285;-75
2022/01/25 03:03:58;;;;;;;15.18;13.60;;;16.40;97.10;;;;;;4185570;28;20231;-75
2022/01/25 03:06:02;;;;;;;13.90;12.55;;;16.40;97.00;;;;;;4181519;28;20981;-75
2022/01/25 03:08:08;;;;;;;14.40;13.00;;;16.40;97.00;;;;;;4179110;28;20232;-75
2022/01/25 03:10:11;;;;;;;15.15;13.55;;;16.30;96.90;;;;;;4179355;28;20231;-75
2022/01/25 03:12:17;;;;;;;14.98;13.48;;;16.40;96.90;;;;;;4179282;28;20301;-75
2022/01/25 03:14:22;;;;;;;15.80;14.15;;;16.40;97.00;;;;;;4179055;28;20257;-75
2022/01/25 03:16:31;;;;;;;15.10;13.60;;;16.30;96.80;;;;;;4179101;28;20258;-75
2022/01/25 03:18:43;;;;;;;15.18;13.57;;;16.30;96.80;;;;;;4182607;28;20722;-75
2022/01/25 03:20:51;;;;;;;15.55;14.02;;;16.30;96.80;;;;;;4181780;28;20219;-75
2022/01/25 03:23:04;;;;;;;14.73;13.32;;;16.30;96.90;;;;;;4176571;28;20230;-75
2022/01/25 03:25:08;;;;;;;15.80;14.10;;;16.30;96.90;;;;;;4178514;28;20270;-75
2022/01/25 03:27:11;;;;;;;15.65;14.05;;;16.30;96.90;;;;;;4178646;28;20216;-75
2022/01/25 03:29:13;;;;;;;14.80;13.30;;;16.30;96.90;;;;;;4177806;28;20219;-75
2022/01/25 03:31:16;;;;;;;15.80;14.13;;;16.30;96.90;;;;;;4178389;28;20289;-75
2022/01/25 03:33:19;;;;;;;15.02;13.52;;;16.30;96.80;;;;;;4178590;28;20274;-75
2022/01/25 03:35:21;;;;;;;14.93;13.38;;;16.30;96.90;;;;;;4180945;28;20641;-75
2022/01/25 03:37:24;;;;;;;15.32;13.73;;;16.20;96.80;;;;;;4195246;28;20265;-75
2022/01/25 03:39:26;;;;;;;15.57;13.98;;;16.30;96.80;;;;;;4194930;28;20219;-75
2022/01/25 03:41:30;;;;;;;14.55;13.05;;;16.20;96.70;;;;;;4194841;28;20329;-75
2022/01/25 03:43:34;;;;;;;14.82;13.32;;;16.30;96.80;;;;;;4195120;28;20269;-75
2022/01/25 03:45:39;;;;;;;15.40;13.70;;;16.20;96.70;;;;;;4194992;28;20276;-75
2022/01/25 03:47:57;;;;;;;14.43;12.93;;;16.20;96.70;;;;;;4195177;28;20219;-75
2022/01/25 03:49:58;;;;;;;15.07;13.57;;;16.20;96.70;;;;;;4192749;28;20265;-75
2022/01/25 03:52:01;;;;;;;15.30;13.70;;;16.20;96.70;;;;;;4194825;28;20227;-75
2022/01/25 03:54:04;;;;;;;15.27;13.57;;;16.20;96.70;;;;;;4196239;28;20223;-75
2022/01/25 03:56:06;;;;;;;14.98;13.48;;;16.20;96.80;;;;;;4199157;28;20211;-75
2022/01/25 03:58:10;;;;;;;15.43;13.82;;;16.20;96.70;;;;;;4200838;28;20979;-75
2022/01/25 04:00:14;;;;;;;15.05;13.55;;;16.20;96.70;;;;;;4200560;28;20222;-75
2022/01/25 04:02:16;;;;;;;14.35;12.90;;;16.20;96.70;;;;;;4200564;28;20288;-75
2022/01/25 04:04:22;;;;;;;15.17;13.57;;;16.20;96.70;;;;;;4200411;28;20249;-75
2022/01/25 04:06:26;;;;;;;15.25;13.68;;;16.10;96.70;;;;;;4200464;28;20211;-75
2022/01/25 04:08:28;;;;;;;14.90;13.30;;;16.10;96.60;;;;;;4200347;28;20245;-75
2022/01/25 04:10:30;;;;;;;15.57;13.93;;;16.20;96.70;;;;;;4195959;28;20336;-75
2022/01/25 04:12:32;;;;;;;13.90;12.48;;;16.20;96.70;;;;;;4200417;28;20280;-75
2022/01/25 04:14:36;;;;;;;14.70;13.15;;;16.20;96.70;;;;;;4200732;28;21055;-75
2022/01/25 04:16:48;;;;;;;14.05;12.75;;;16.10;96.70;;;;;;4200399;28;20256;-75
2022/01/25 04:18:59;;;;;;;14.88;13.35;;;16.20;96.70;;;;;;4200408;28;20237;-75
2022/01/25 04:21:13;;;;;;;14.55;13.13;;;16.20;97.00;;;;;;4200067;28;20219;-75
2022/01/25 04:25:40;;;;;;;14.43;13.02;;;16.20;96.70;;;;;;4149334;28;20870;-77
2022/01/25 04:27:42;;;;;;;14.90;13.35;;;16.10;96.60;;;;;;4195527;28;20607;-76
2022/01/25 04:29:46;;;;;;;15.63;13.13;;;16.20;96.70;;;;;;4200412;28;20219;-77
2022/01/25 04:31:48;;;;;;;15.43;13.82;;;16.10;96.60;;;;;;4200312;28;20250;-77
2022/01/25 04:34:09;;;;;;;14.75;13.25;;;16.10;96.50;;;;;;4200762;28;20613;-77
2022/01/25 04:36:38;;;;;;;14.20;12.70;;;16.10;96.60;;;;;;4199750;28;20280;-77
2022/01/25 04:50:43;;;;;;;13.88;12.50;;;16.10;96.60;;;;;;4200603;28;20211;-76
2022/01/25 04:52:53;;;;;;;14.65;13.25;;;16.10;96.60;;;;;;4200314;28;20211;-79
2022/01/25 04:55:06;;;;;;;14.77;13.27;;;16.00;96.60;;;;;;4199243;28;20273;-77
2022/01/25 04:57:22;;;;;;;15.60;13.88;;;16.00;96.60;;;;;;4199943;28;20215;-77
2022/01/25 04:59:30;;;;;;;14.63;13.13;;;16.00;96.60;;;;;;4200186;28;20226;-77
2022/01/25 05:01:35;;;;;;;14.80;13.18;;;16.00;96.70;;;;;;4199806;28;20214;-76
2022/01/25 05:03:52;;;;;;;12.93;11.63;;;16.00;96.70;;;;;;4198405;28;20249;-75
2022/01/25 05:05:59;;;;;;;15.00;12.95;;;16.00;96.70;;;;;;4197313;28;20219;-76
2022/01/25 05:08:07;;;;;;;14.52;12.77;;;16.00;96.70;;;;;;4197237;28;20215;-75
2022/01/25 05:10:10;;;;;;;13.75;12.23;;;16.10;96.60;;;;;;4197136;28;20268;-75
2022/01/25 05:12:13;;;;;;;14.02;12.60;;;16.00;96.50;;;;;;4196846;28;20297;-76
2022/01/25 05:14:23;;;;;;;14.55;12.57;;;16.00;96.70;;;;;;4197198;28;21690;-75
2022/01/25 05:16:31;;;;;;;14.27;12.77;;;16.00;96.60;;;;;;4196105;28;20280;-76
2022/01/25 05:18:42;;;;;;;14.00;12.57;;;16.00;96.60;;;;;;4197722;28;20222;-75
2022/01/25 05:23:04;;;;;;;13.90;12.52;;;16.00;96.60;;;;;;4197591;28;20614;-75
2022/01/25 05:25:07;;;;;;;14.60;12.70;;;16.00;96.50;;;;;;4196002;28;20269;-76
2022/01/25 05:27:11;;;;;;;14.25;12.77;;;16.00;96.60;;;;;;4197213;28;20219;-76
2022/01/25 05:29:14;;;;;;;15.07;13.48;;;16.00;96.60;;;;;;4197579;28;20227;-75
2022/01/25 05:31:16;;;;;;;14.32;12.82;;;16.00;96.60;;;;;;4196908;28;20258;-76
2022/01/25 05:33:19;;;;;;;14.40;12.90;;;16.00;96.60;;;;;;4197029;28;20261;-75
2022/01/25 05:35:23;;;;;;;14.43;12.25;;;16.00;96.60;;;;;;4196775;28;20211;-75
2022/01/25 05:37:25;;;;;;;13.77;12.32;;;16.00;96.60;;;;;;4194047;28;20261;-75
2022/01/25 05:39:31;;;;;;;13.98;12.57;;;15.90;96.60;;;;;;4196886;28;20285;-75
2022/01/25 05:41:34;;;;;;;13.73;12.30;;;16.00;96.60;;;;;;4196543;28;20652;-75
2022/01/25 05:45:59;;;;;;;14.43;12.93;;;15.90;96.60;;;;;;4193098;28;20730;-75
2022/01/25 05:48:02;;;;;;;12.70;11.30;;;15.90;96.60;;;;;;4196294;28;20218;-75
2022/01/25 05:50:05;;;;;;;15.40;13.02;;;15.90;96.50;;;;;;4196654;28;20659;-75
2022/01/25 05:52:10;;;;;;;13.93;12.53;;;15.90;96.50;;;;;;4196550;28;20242;-75
2022/01/25 05:54:13;;;;;;;14.07;12.32;;;15.90;97.10;;;;;;4196660;28;20261;-75
2022/01/25 05:56:16;;;;;;;14.13;12.30;;;15.70;97.00;;;;;;4196416;28;20623;-75
2022/01/25 05:58:19;;;;;;;13.18;11.77;;;15.70;97.10;;;;;;4193006;28;20223;-75
2022/01/25 06:00:22;;;;;;;13.52;12.00;;;15.70;96.90;;;;;;4196505;28;20219;-75
2022/01/25 06:02:27;;;;;;;13.25;11.80;;;15.90;96.80;;;;;;4197050;28;20237;-75
2022/01/25 06:04:29;;;;;;;15.23;11.73;;;16.00;96.90;;;;;;4196606;28;20222;-75
2022/01/25 06:06:34;;;;;;;13.38;11.55;;;16.10;96.70;;;;;;4196754;28;20322;-75
2022/01/25 06:08:38;;;;;;;13.68;11.93;;;16.10;96.80;;;;;;4196579;28;20264;-75
2022/01/25 06:10:40;;;;;;;13.23;11.82;;;16.20;96.30;;;;;;4196125;28;20219;-75
2022/01/25 06:12:44;;;;;;;14.20;11.98;;;16.20;96.30;;;;;;4196746;28;20243;-75
2022/01/25 06:14:47;;;;;;;13.35;11.95;;;16.30;96.30;;;;;;4196054;28;20219;-75
2022/01/25 06:16:49;;;;;;;14.95;12.20;;;16.30;96.30;;;;;;4195346;28;20278;-75
2022/01/25 06:18:51;;;;;;;13.65;12.18;;;16.30;96.30;;;;;;4196259;28;20219;-76
2022/01/25 06:20:54;;;;;;;13.90;11.80;;;16.30;96.30;;;;;;4196258;28;20223;-75
2022/01/25 06:22:56;;;;;;;13.68;11.88;;;16.40;96.30;;;;;;4196369;28;20260;-75
2022/01/25 06:25:00;;;;;;;14.88;12.77;;;16.40;96.30;;;;;;4196059;28;20245;-76
2022/01/25 06:27:03;;;;;;;12.75;11.32;;;16.40;96.40;;;;;;4195994;28;20227;-75
2022/01/25 06:29:05;;;;;;;14.35;12.23;;;16.40;96.40;;;;;;4193366;28;20246;-75
2022/01/25 06:31:08;;;;;;;14.05;12.50;;;16.40;96.30;;;;;;4194464;28;20222;-75
2022/01/25 06:33:10;;;;;;;12.77;11.40;;;16.50;96.40;;;;;;4196582;28;20243;-76
2022/01/25 06:35:14;;;;;;;15.95;13.10;;;16.50;96.60;;;;;;4196323;28;20611;-76
2022/01/25 06:37:16;;;;;;;15.38;12.32;;;16.50;96.60;;;;;;4188169;28;20270;-75
2022/01/25 06:39:19;;;;;;;14.10;12.60;;;16.50;96.80;;;;;;4180004;28;20216;-75
2022/01/25 06:41:22;;;;;;;13.82;12.20;;;16.50;96.50;;;;;;4179436;28;20231;-75
2022/01/25 06:43:25;;;;;;;12.45;11.02;;;16.50;96.60;;;;;;4180047;28;20219;-76
2022/01/25 06:45:27;;;;;;;13.70;11.77;;;16.60;96.50;;;;;;4179947;28;20228;-75
2022/01/25 06:47:30;;;;;;;12.95;10.88;;;16.60;96.70;;;;;;4179742;28;20216;-76
2022/01/25 06:49:32;;;;;;;12.95;11.50;;;16.60;96.50;;;;;;4178985;28;20610;-76
2022/01/25 06:51:34;;;;;;;14.18;11.73;;;16.50;96.50;;;;;;4178496;28;20232;-75
2022/01/25 06:53:38;;;;;;;14.88;12.20;;;16.60;96.70;;;;;;4179143;28;20731;-76
2022/01/25 06:55:41;;;;;;;13.82;11.55;;;16.60;96.90;;;;;;4179015;28;20266;-75
2022/01/25 06:57:45;;;;;;;14.13;12.20;;;16.60;96.70;;;;;;4178704;28;20227;-76
2022/01/25 06:59:48;;;;;;;15.20;12.63;;;16.60;96.70;;;;;;4176866;28;20306;-75
2022/01/25 07:01:50;;;;;;;12.98;11.18;;;16.60;96.80;;;;;;4178748;28;20649;-75
2022/01/25 07:03:52;;;;;;;13.50;11.65;;;16.70;96.80;;;;;;4178928;28;20282;-75
2022/01/25 07:05:55;;;;;;;13.07;11.50;;;16.70;96.90;;;;;;4179416;28;20669;-75
2022/01/25 07:07:57;;;;;;;12.60;10.45;;;16.60;96.70;;;;;;4187083;28;20226;-75
2022/01/25 07:10:00;;;;;;;13.15;11.30;;;16.70;97.20;;;;;;4195863;28;20221;-75
2022/01/25 07:12:02;;;;;;;13.52;11.38;;;16.70;97.40;;;;;;4193396;28;20235;-75
2022/01/25 07:14:06;;;;;;;11.82;10.27;;;16.70;97.20;;;;;;4178865;28;20215;-75
2022/01/25 07:16:08;;;;;;;13.85;11.20;;;16.70;97.40;;;;;;4178868;28;20220;-76
2022/01/25 07:18:11;;;;;;;13.73;11.93;;;16.70;97.40;;;;;;4178807;28;20661;-76
2022/01/25 07:20:13;;;;;;;13.48;11.73;;;16.70;97.30;;;;;;4179166;28;20243;-75
2022/01/25 07:22:16;;;;;;;13.48;11.50;;;16.70;97.40;;;;;;4179101;28;20212;-75
2022/01/25 07:24:18;;;;;;;12.00;10.50;;;16.70;97.50;;;;;;4179477;28;20298;-75
2022/01/25 07:26:20;;;;;;;12.75;11.27;;;16.80;97.10;;;;;;4177016;28;20282;-76
2022/01/25 07:28:23;;;;;;;13.45;11.50;;;16.80;97.30;;;;;;4178714;28;20263;-76
2022/01/25 07:30:27;;;;;;;13.70;10.85;;;16.80;97.30;;;;;;4178821;28;20223;-75
2022/01/25 07:32:29;;;;;;;15.60;11.88;;;16.80;97.20;;;;;;4177938;28;20769;-76
2022/01/25 07:34:32;;;;;;;13.85;12.10;;;16.80;97.50;;;;;;4179231;28;20211;-75
2022/01/25 07:36:37;;;;;;;11.85;10.55;;;16.80;97.50;;;;;;4190698;28;20365;-75
2022/01/25 07:38:39;;;;;;;14.35;10.65;;;16.80;97.90;;;;;;4195191;28;20385;-75
2022/01/25 07:40:42;;;;;;;12.82;11.45;;;16.80;97.50;;;;;;4195520;28;20269;-75
2022/01/25 07:42:46;;;;;;;11.65;9.40;;;16.80;97.60;;;;;;4195383;28;20257;-76
2022/01/25 07:44:48;;;;;;;12.13;9.88;;;16.80;97.50;;;;;;4195076;28;20222;-75
2022/01/25 07:46:52;;;;;;;14.43;11.00;;;16.80;97.60;;;;;;4191946;28;20709;-76
2022/01/25 07:48:54;;;;;;;13.57;10.77;;;16.80;97.70;;;;;;4195581;28;20307;-77
2022/01/25 07:50:57;;;;;;;12.85;10.05;;;16.80;97.50;;;;;;4195368;28;20269;-76
2022/01/25 07:52:59;;;;;;;12.00;9.43;;;16.80;96.60;;;;;;4192104;28;20231;-77
2022/01/25 07:55:02;;;;;;;16.17;10.18;;;16.80;97.50;;;;;;4194175;28;20215;-76
2022/01/25 07:57:05;;;;;;;13.35;10.02;;;16.80;97.60;;;;;;4189169;28;20223;-73
2022/01/25 07:59:07;;;;;;;13.70;9.50;;;16.70;97.40;;;;;;4187296;28;20265;-73
2022/01/25 08:01:09;;;;;;;11.95;9.52;;;16.80;97.90;;;;;;4188056;28;20218;-72
2022/01/25 08:03:13;;;;;;;13.88;9.68;;;16.90;98.00;;;;;;4191554;28;20237;-73
2022/01/25 08:05:18;;;;;;;11.88;9.82;;;17.10;98.30;;;;;;4195040;28;20211;-74
2022/01/25 08:07:21;;;;;;;12.57;9.75;;;17.30;98.00;;;;;;4191634;28;20223;-73
2022/01/25 08:09:23;;;;;;;13.82;9.13;;;17.40;98.30;;;;;;4193186;28;20626;-73
2022/01/25 08:11:25;;;;;;;15.75;11.10;;;17.50;98.20;;;;;;4193799;28;20218;-74
2022/01/25 08:13:29;;;;;;;13.30;9.68;;;17.60;97.80;;;;;;4185523;28;20234;-75
2022/01/25 08:15:31;;;;;;;13.23;10.18;;;17.70;97.80;;;;;;4189795;28;20602;-74
2022/01/25 08:17:34;;;;;;;12.95;10.07;;;17.80;96.20;;;;;;4184999;28;20211;-74
2022/01/25 08:19:38;;;;;;;12.68;9.27;;;17.90;96.20;;;;;;4190723;28;20223;-73
2022/01/25 08:21:41;;;;;;;19.27;11.07;;;17.90;96.70;;;;;;4193360;28;20211;-79
2022/01/25 08:23:43;;;;;;;32.65;11.32;;;17.90;96.40;;;;;;4189469;28;20257;-73
2022/01/25 08:25:46;;;;;;;12.32;8.93;;;18.00;96.30;;;;;;4188955;28;20269;-73
2022/01/25 08:27:49;;;;;;;11.65;9.30;;;18.10;97.00;;;;;;4185378;28;20273;-74
2022/01/25 08:29:52;;;;;;;11.48;8.25;;;18.10;97.00;;;;;;4189766;28;20259;-74
2022/01/25 08:31:55;;;;;;;13.15;9.10;;;18.10;97.20;;;;;;4192105;28;20211;-73
2022/01/25 08:33:57;;;;;;;13.55;8.70;;;18.10;97.20;;;;;;4192023;28;20292;-73
2022/01/25 08:36:01;;;;;;;14.13;8.90;;;18.20;96.50;;;;;;4184977;28;20227;-74
2022/01/25 08:38:03;;;;;;;10.40;8.05;;;18.30;96.60;;;;;;4174335;28;20212;-74
2022/01/25 08:40:08;;;;;;;9.52;8.38;;;18.20;97.20;;;;;;4175057;28;20270;-75
2022/01/25 08:42:11;;;;;;;13.82;8.90;;;18.20;97.70;;;;;;4173984;28;20314;-74
2022/01/25 08:44:14;;;;;;;10.57;9.00;;;18.30;97.70;;;;;;4178667;28;20212;-74
2022/01/25 08:46:17;;;;;;;9.77;8.10;;;18.30;97.60;;;;;;4179230;28;20359;-74
2022/01/25 08:48:20;;;;;;;8.48;7.47;;;18.40;97.70;;;;;;4179651;28;20231;-73
2022/01/25 08:50:22;;;;;;;8.82;7.80;;;18.40;97.60;;;;;;4176164;28;20604;-74
2022/01/25 08:52:27;;;;;;;10.90;8.18;;;18.50;97.70;;;;;;4182321;28;20263;-74
2022/01/25 08:54:29;;;;;;;9.98;8.02;;;18.50;97.80;;;;;;4177155;28;20236;-73
2022/01/25 08:56:31;;;;;;;10.77;8.88;;;18.50;97.70;;;;;;4180122;28;20216;-73
2022/01/25 08:58:34;;;;;;;9.70;6.97;;;18.50;97.60;;;;;;4175620;28;20217;-73
2022/01/25 09:00:36;;;;;;;9.80;7.10;;;18.60;97.70;;;;;;4176173;28;20216;-73
2022/01/25 09:02:39;;;;;;;10.15;7.15;;;18.60;98.20;;;;;;4178518;28;20224;-72
2022/01/25 09:04:42;;;;;;;9.13;7.22;;;18.70;97.80;;;;;;4178310;28;20724;-73
2022/01/25 09:06:44;;;;;;;10.15;7.93;;;18.80;97.80;;;;;;4177681;28;20731;-72
2022/01/25 09:08:51;;;;;;;11.63;8.73;;;18.80;97.50;;;;;;4176233;28;20266;-73
2022/01/25 09:10:58;;;;;;;8.15;6.90;;;18.80;97.00;;;;;;4173841;28;20274;-73
2022/01/25 09:13:01;;;;;;;8.85;7.28;;;18.80;97.10;;;;;;4181031;28;20266;-74
2022/01/25 09:15:04;;;;;;;10.75;7.57;;;18.80;97.90;;;;;;4173623;28;20225;-74
2022/01/25 09:17:10;;;;;;;8.70;6.85;;;18.90;98.10;;;;;;4175682;28;20301;-73
2022/01/25 09:19:12;;;;;;;8.15;7.07;;;19.00;98.20;;;;;;4179146;28;20266;-73
2022/01/25 09:21:15;;;;;;;10.50;7.97;;;19.00;97.60;;;;;;4176579;28;20259;-73
2022/01/25 09:23:19;;;;;;;8.98;7.38;;;18.90;97.60;;;;;;4176584;28;20216;-72
2022/01/25 09:25:23;;;;;;;10.38;7.20;;;18.90;98.00;;;;;;4169013;28;20216;-73
2022/01/25 09:27:25;;;;;;;7.40;6.70;;;18.90;98.50;;;;;;4175659;28;20216;-73
2022/01/25 09:29:28;;;;;;;9.52;6.93;;;19.00;98.90;;;;;;4168402;28;20673;-74
2022/01/25 09:31:31;;;;;;;7.47;6.32;;;18.90;98.70;;;;;;4155881;28;20220;-73
2022/01/25 09:33:33;;;;;;;8.23;6.72;;;19.00;98.70;;;;;;4160440;28;20290;-73
2022/01/25 09:35:36;;;;;;;8.82;7.53;;;19.10;99.00;;;;;;4159906;28;20235;-73
2022/01/25 09:37:38;;;;;;;7.30;6.22;;;19.10;98.80;;;;;;4175981;28;20268;-73
2022/01/25 09:39:41;;;;;;;8.95;6.80;;;19.10;98.40;;;;;;4179045;28;20250;-71
2022/01/25 09:41:44;;;;;;;10.43;8.10;;;19.20;98.80;;;;;;4184057;28;20207;-71
2022/01/25 09:43:47;;;;;;;12.30;9.13;;;19.10;97.70;;;;;;4173845;28;20670;-72
2022/01/25 09:45:49;;;;;;;9.88;8.85;;;19.20;97.10;;;;;;4177578;28;20666;-72
2022/01/25 09:47:52;;;;;;;8.32;7.13;;;19.10;97.40;;;;;;4179269;28;20216;-72
2022/01/25 09:49:55;;;;;;;8.23;7.35;;;19.10;98.50;;;;;;4175703;28;20985;-71
2022/01/25 09:51:59;;;;;;;9.63;7.00;;;19.20;98.90;;;;;;4171817;28;20611;-71
2022/01/25 09:54:01;;;;;;;7.75;6.80;;;19.20;99.30;;;;;;4184056;28;20298;-70
2022/01/25 09:56:04;;;;;;;7.13;6.35;;;19.30;98.80;;;;;;4175622;28;20212;-71
2022/01/25 09:58:09;;;;;;;8.70;7.22;;;19.30;99.00;;;;;;4177562;28;20261;-71
2022/01/25 10:00:14;;;;;;;8.50;7.10;;;19.30;99.30;;;;;;4175130;28;20208;-72
2022/01/25 10:02:37;;;;;;;7.97;6.88;;;19.30;99.10;;;;;;4172307;28;20259;-72
2022/01/25 10:04:42;;;;;;;7.85;6.55;;;19.30;99.10;;;;;;4174366;28;20271;-71
2022/01/25 10:06:50;;;;;;;8.52;7.18;;;19.30;99.30;;;;;;4174217;28;20226;-71
2022/01/25 10:08:54;;;;;;;9.05;7.03;;;19.40;99.00;;;;;;4175822;28;20271;-72
2022/01/25 10:10:58;;;;;;;7.57;6.78;;;19.40;99.20;;;;;;4183713;28;20246;-71
2022/01/25 10:13:16;;;;;;;8.75;6.63;;;19.50;98.80;;;;;;4179101;28;20246;-70
2022/01/25 10:15:21;;;;;;;13.10;9.30;;;19.50;99.20;;;;;;4172728;28;20261;-72
2022/01/25 10:17:33;;;;;;;10.13;8.60;;;19.50;97.80;;;;;;4178029;28;20222;-72
2022/01/25 10:19:42;;;;;;;10.88;8.13;;;19.40;97.80;;;;;;4174069;28;20661;-70
2022/01/25 10:21:48;;;;;;;10.68;8.23;;;19.40;98.10;;;;;;4177237;28;20219;-71
2022/01/25 10:24:05;;;;;;;8.73;7.68;;;19.60;97.70;;;;;;4174763;28;20221;-71
2022/01/25 10:26:08;;;;;;;9.70;7.78;;;19.60;97.40;;;;;;4171106;28;20223;-71
2022/01/25 10:28:13;;;;;;;9.27;7.68;;;19.70;97.40;;;;;;4173919;28;20224;-72
2022/01/25 10:30:17;;;;;;;10.25;7.53;;;19.80;97.40;;;;;;4172667;28;20608;-71
2022/01/25 10:32:23;;;;;;;10.02;8.57;;;19.80;97.60;;;;;;4175449;28;20207;-71
2022/01/25 10:34:27;;;;;;;10.05;8.25;;;19.80;97.70;;;;;;4173773;28;20232;-70
2022/01/25 10:36:30;;;;;;;8.38;7.07;;;19.80;97.60;;;;;;4174217;28;20258;-70
2022/01/25 10:38:34;;;;;;;9.43;8.43;;;19.80;97.70;;;;;;4178981;28;20266;-71
2022/01/25 10:40:37;;;;;;;9.45;8.23;;;19.80;97.90;;;;;;4174424;28;20216;-70
2022/01/25 10:42:41;;;;;;;11.30;8.85;;;19.80;97.70;;;;;;4172511;28;20245;-71
2022/01/25 10:44:49;;;;;;;11.82;8.07;;;19.80;97.80;;;;;;4175084;28;20264;-70
2022/01/25 10:46:52;;;;;;;9.35;8.38;;;19.80;97.80;;;;;;4176162;28;20222;-71
2022/01/25 10:48:58;;;;;;;8.40;7.40;;;19.80;97.70;;;;;;4171546;28;20215;-71
2022/01/25 10:51:06;;;;;;;9.35;7.63;;;19.90;97.70;;;;;;4176189;28;20335;-71
2022/01/25 10:53:20;;;;;;;9.70;7.93;;;19.70;97.80;;;;;;4169680;28;20289;-72
2022/01/25 10:55:22;;;;;;;11.85;8.50;;;19.70;97.60;;;;;;4171263;28;20270;-71
2022/01/25 10:57:24;;;;;;;10.32;7.63;;;19.60;97.70;;;;;;4175837;28;20938;-71
2022/01/25 10:59:29;;;;;;;11.57;8.93;;;19.70;97.90;;;;;;4176282;28;20266;-72
2022/01/25 11:01:34;;;;;;;9.45;8.07;;;19.80;97.70;;;;;;4174456;28;20266;-71
2022/01/25 11:03:39;;;;;;;17.63;13.75;;;19.90;97.70;;;;;;4169831;28;20631;-72
2022/01/25 11:05:43;;;;;;;28.20;13.05;;;19.60;96.90;;;;;;4167628;28;20668;-71
2022/01/25 11:07:46;;;;;;;13.02;11.38;;;19.60;97.00;;;;;;4173741;28;20216;-72
2022/01/25 11:09:49;;;;;;;10.63;8.48;;;19.60;97.20;;;;;;4172822;28;20568;-71
2022/01/25 11:11:56;;;;;;;11.35;9.45;;;19.60;97.50;;;;;;4175557;28;20220;-71
2022/01/25 11:14:49;;;;;;;9.65;7.93;;;19.80;97.00;;;;;;4173710;28;20216;-71
2022/01/25 11:16:21;;;;;;;8.40;7.07;;;19.80;97.30;;;;;;4173090;28;20288;-71
2022/01/25 11:18:25;;;;;;;8.45;7.05;;;19.90;98.30;;;;;;4172889;28;20274;-71
2022/01/25 11:20:28;;;;;;;7.82;6.50;;;19.90;99.00;;;;;;4174280;28;20212;-70
2022/01/25 11:22:30;;;;;;;7.80;7.00;;;19.90;99.00;;;;;;4170737;28;20224;-70
2022/01/25 11:24:34;;;;;;;9.40;6.90;;;19.90;99.30;;;;;;4180679;28;20211;-70
2022/01/25 11:26:38;;;;;;;9.40;7.47;;;19.90;98.40;;;;;;4170416;28;20208;-70
2022/01/25 11:28:42;;;;;;;10.57;8.18;;;20.00;97.40;;;;;;4179722;28;20222;-70
2022/01/25 11:30:47;;;;;;;8.48;6.70;;;20.00;97.50;;;;;;4171893;28;20271;-70
2022/01/25 11:32:54;;;;;;;8.57;6.85;;;20.00;98.70;;;;;;4170401;28;20211;-70
2022/01/25 11:34:58;;;;;;;7.13;6.43;;;20.00;98.80;;;;;;4170300;28;20244;-71
2022/01/25 11:37:04;;;;;;;8.82;6.38;;;20.00;99.30;;;;;;4175543;28;20226;-71
2022/01/25 11:39:11;;;;;;;8.63;6.88;;;20.00;99.30;;;;;;4176178;28;20263;-70
2022/01/25 11:41:16;;;;;;;9.40;6.53;;;20.00;99.30;;;;;;4172557;28;20873;-70
2022/01/25 11:43:18;;;;;;;8.35;6.75;;;20.00;99.50;;;;;;4174389;28;20277;-70
2022/01/25 11:45:22;;;;;;;7.50;6.30;;;20.00;99.30;;;;;;4176529;28;20872;-71
2022/01/25 11:47:32;;;;;;;9.40;8.20;;;20.00;99.70;;;;;;4175654;28;20272;-71
2022/01/25 11:49:34;;;;;;;9.25;7.18;;;19.90;97.80;;;;;;4175268;28;20617;-71